Time;durP1;ratioP1;P1;durP2;ratioP2;P2;SDS_P1;SDS_P2;PMS_P1;PMS_P2;Temp;Humidity;BMP_temperature;BMP_pressure;BME280_temperature;BME280_humidity;BME280_pressure;Samples;Min_cycle;Max_cycle;Signal;HPM_P1;HPM_P2
2022/09/17 00:00:49;;;;;;;5.85;1.90;;;14.70;90.70;;;;;;5036416;28;20534;-85
2022/09/17 00:03:15;;;;;;;5.60;1.88;;;14.60;90.70;;;;;;5019606;28;20029;-84
2022/09/17 00:05:41;;;;;;;5.18;1.80;;;14.60;90.80;;;;;;5036220;28;20026;-84
2022/09/17 00:08:13;;;;;;;8.10;2.10;;;14.60;90.90;;;;;;5022964;28;20034;-85
2022/09/17 00:10:42;;;;;;;8.48;1.90;;;14.60;91.10;;;;;;5017644;28;20072;-85
2022/09/17 00:13:09;;;;;;;5.80;2.00;;;14.60;91.20;;;;;;5000321;28;20032;-85
2022/09/17 00:15:43;;;;;;;9.73;2.78;;;14.60;91.20;;;;;;5003750;28;20030;-82
2022/09/17 00:18:11;;;;;;;9.18;2.47;;;14.60;91.20;;;;;;5028265;28;20041;-86
2022/09/17 00:20:43;;;;;;;11.45;2.53;;;14.70;91.20;;;;;;5013373;28;20036;-85
2022/09/17 00:23:09;;;;;;;5.38;1.55;;;14.70;91.30;;;;;;5047275;28;20080;-87
2022/09/17 00:25:44;;;;;;;6.75;2.22;;;14.70;91.30;;;;;;5063504;28;20041;-82
2022/09/17 00:28:12;;;;;;;6.45;2.00;;;14.70;91.40;;;;;;5043660;28;20005;-88
2022/09/17 00:30:43;;;;;;;5.97;1.95;;;14.70;91.40;;;;;;5043962;28;20006;-84
2022/09/17 00:33:11;;;;;;;9.75;2.20;;;14.80;91.40;;;;;;5006525;28;20038;-83
2022/09/17 00:35:38;;;;;;;11.45;2.30;;;14.70;91.40;;;;;;5003357;28;20040;-83
2022/09/17 00:38:03;;;;;;;12.35;2.53;;;14.70;91.30;;;;;;5020462;28;20101;-83
2022/09/17 00:40:29;;;;;;;6.60;1.85;;;14.60;91.30;;;;;;5034033;28;20116;-83
2022/09/17 00:42:55;;;;;;;8.82;2.25;;;14.60;91.40;;;;;;5019833;28;20056;-83
2022/09/17 00:45:23;;;;;;;7.47;2.30;;;14.60;91.40;;;;;;5019617;28;20026;-84
2022/09/17 00:48:09;;;;;;;8.68;2.30;;;14.60;91.50;;;;;;5019540;28;20075;-84
2022/09/17 00:50:41;;;;;;;7.10;1.95;;;14.60;91.50;;;;;;5035678;28;20036;-83
2022/09/17 00:53:11;;;;;;;;;;;14.60;91.60;;;;;;5057457;28;20499;-85
2022/09/17 00:55:42;;;;;;;7.00;2.17;;;14.70;91.60;;;;;;5032988;28;20345;-84
2022/09/17 00:58:10;;;;;;;11.05;2.30;;;14.60;91.60;;;;;;5020007;28;20032;-84
2022/09/17 01:00:39;;;;;;;7.75;2.08;;;14.70;91.60;;;;;;5019509;28;20109;-84
2022/09/17 01:03:05;;;;;;;9.13;2.50;;;14.70;91.60;;;;;;5019364;28;20071;-83
2022/09/17 01:05:59;;;;;;;6.30;2.50;;;14.70;91.60;;;;;;5036745;28;20453;-84
2022/09/17 01:08:39;;;;;;;9.90;2.80;;;14.70;91.60;;;;;;5019102;28;20048;-83
2022/09/17 01:11:20;;;;;;;7.57;2.33;;;14.70;91.60;;;;;;5019547;28;20080;-86
2022/09/17 01:13:46;;;;;;;9.60;2.42;;;14.60;91.70;;;;;;5020036;28;20072;-84
2022/09/17 01:16:37;;;;;;;8.00;2.15;;;14.60;91.70;;;;;;5019644;28;20025;-85
2022/09/17 01:19:07;;;;;;;9.10;2.42;;;14.60;91.80;;;;;;5019356;28;20033;-85
2022/09/17 01:22:26;;;;;;;5.70;2.00;;;14.50;91.90;;;;;;5037156;28;20029;-84
2022/09/17 01:25:16;;;;;;;10.75;2.05;;;14.50;91.90;;;;;;4966677;28;20035;-83
2022/09/17 01:28:13;;;;;;;7.72;1.52;;;14.40;92.00;;;;;;5053034;28;20092;-85
2022/09/17 01:31:06;;;;;;;8.50;2.25;;;14.40;92.10;;;;;;5039319;28;20112;-86
2022/09/17 01:33:54;;;;;;;6.90;1.98;;;14.40;92.10;;;;;;5039289;28;20461;-85
2022/09/17 01:36:45;;;;;;;8.35;2.22;;;14.40;92.20;;;;;;5037429;28;20024;-88
2022/09/17 01:39:12;;;;;;;5.38;1.75;;;14.50;92.40;;;;;;5019309;28;20363;-85
2022/09/17 01:41:58;;;;;;;6.70;2.47;;;14.50;92.30;;;;;;5019078;28;20490;-84
2022/09/17 01:45:01;;;;;;;6.68;1.67;;;14.50;92.40;;;;;;5019443;28;20036;-83
2022/09/17 01:47:33;;;;;;;7.70;2.03;;;14.50;92.40;;;;;;5006280;28;20061;-85
2022/09/17 01:50:11;;;;;;;10.63;2.40;;;14.60;92.40;;;;;;4998894;28;20029;-85
2022/09/17 01:52:40;;;;;;;12.13;2.85;;;14.60;92.40;;;;;;4999817;28;20030;-85
2022/09/17 01:55:16;;;;;;;9.30;2.38;;;14.60;92.40;;;;;;4999334;28;20030;-85
2022/09/17 01:57:59;;;;;;;8.05;2.60;;;14.60;92.40;;;;;;4983142;28;20489;-85
2022/09/17 02:00:26;;;;;;;8.30;1.92;;;14.50;92.40;;;;;;4999400;28;20038;-84
2022/09/17 02:03:01;;;;;;;6.13;1.95;;;14.60;92.40;;;;;;4983629;28;20117;-85
2022/09/17 02:05:38;;;;;;;8.60;2.33;;;14.60;92.50;;;;;;5007681;28;20058;-87
2022/09/17 02:08:24;;;;;;;7.28;2.38;;;14.50;92.50;;;;;;5029490;28;20043;-85
2022/09/17 02:10:58;;;;;;;11.20;2.25;;;14.50;92.50;;;;;;5027818;28;20080;-83
2022/09/17 02:13:45;;;;;;;10.10;2.45;;;14.50;92.40;;;;;;5058833;28;20069;-89
2022/09/17 02:16:23;;;;;;;6.53;2.28;;;14.50;92.40;;;;;;5035254;28;20060;-86
2022/09/17 02:19:04;;;;;;;8.73;1.90;;;14.50;92.40;;;;;;5009281;28;20051;-85
2022/09/17 02:22:05;;;;;;;11.82;2.35;;;14.40;92.40;;;;;;4999149;28;20026;-85
2022/09/17 02:25:03;;;;;;;6.00;1.73;;;14.40;92.40;;;;;;4999001;28;20057;-84
2022/09/17 02:28:06;;;;;;;11.13;2.00;;;14.40;92.40;;;;;;4998536;28;20022;-85
2022/09/17 02:30:32;;;;;;;11.60;2.75;;;14.40;92.40;;;;;;5035380;28;20036;-85
2022/09/17 02:32:58;;;;;;;9.02;2.17;;;14.30;92.30;;;;;;4985894;28;20025;-86
2022/09/17 02:35:25;;;;;;;9.63;2.45;;;14.30;92.30;;;;;;5001281;28;20083;-87
2022/09/17 02:37:52;;;;;;;5.85;1.80;;;14.30;92.30;;;;;;4984613;28;20036;-85
2022/09/17 02:40:20;;;;;;;7.68;2.13;;;14.30;92.30;;;;;;5017577;28;20026;-85
2022/09/17 02:42:54;;;;;;;8.68;1.95;;;14.20;92.30;;;;;;5002201;28;20477;-84
2022/09/17 02:45:39;;;;;;;7.65;1.92;;;14.20;92.30;;;;;;5018073;28;20084;-85
2022/09/17 02:48:20;;;;;;;10.70;2.38;;;14.10;92.30;;;;;;5025788;28;20433;-85
2022/09/17 02:50:55;;;;;;;7.57;1.70;;;14.20;92.20;;;;;;5022653;28;20038;-85
2022/09/17 02:53:47;;;;;;;5.85;2.15;;;14.10;92.20;;;;;;5017770;28;20367;-84
2022/09/17 02:56:35;;;;;;;7.05;1.73;;;14.10;92.20;;;;;;4987856;28;20029;-84
2022/09/17 02:59:18;;;;;;;9.02;2.00;;;14.10;92.20;;;;;;5017880;28;20075;-84
2022/09/17 03:01:52;;;;;;;6.28;1.55;;;14.00;92.20;;;;;;5051562;28;20021;-84
2022/09/17 03:04:21;;;;;;;5.85;1.73;;;14.00;92.10;;;;;;5037110;28;20120;-85
2022/09/17 03:06:47;;;;;;;5.57;1.90;;;14.00;92.10;;;;;;5036835;28;20099;-84
2022/09/17 03:09:14;;;;;;;6.93;2.00;;;14.00;92.20;;;;;;5036996;28;20028;-84
2022/09/17 03:11:40;;;;;;;7.97;2.20;;;13.90;92.10;;;;;;5020221;28;20037;-85
2022/09/17 03:14:07;;;;;;;9.43;2.17;;;13.90;92.20;;;;;;5021079;28;20126;-84
2022/09/17 03:16:33;;;;;;;6.63;1.92;;;13.90;92.50;;;;;;5020440;28;20033;-85
2022/09/17 03:18:59;;;;;;;8.02;1.80;;;13.90;92.20;;;;;;5037372;28;20021;-84
2022/09/17 03:21:31;;;;;;;7.60;2.45;;;13.80;92.20;;;;;;5035372;28;20373;-84
2022/09/17 03:23:59;;;;;;;6.47;1.65;;;13.80;92.30;;;;;;5036741;28;20033;-85
2022/09/17 03:26:26;;;;;;;7.28;1.95;;;13.80;92.30;;;;;;5036468;28;20036;-84
2022/09/17 03:28:51;;;;;;;10.45;2.13;;;13.80;92.30;;;;;;5020591;28;20163;-83
2022/09/17 03:31:17;;;;;;;6.82;1.67;;;13.80;92.20;;;;;;5018897;28;20067;-84
2022/09/17 03:33:43;;;;;;;9.43;1.90;;;13.70;92.20;;;;;;5019892;28;20511;-84
2022/09/17 03:36:11;;;;;;;7.05;1.70;;;13.70;92.20;;;;;;5003931;28;20390;-83
2022/09/17 03:38:37;;;;;;;6.63;1.73;;;13.70;92.20;;;;;;5036997;28;20449;-85
2022/09/17 03:41:06;;;;;;;6.90;1.67;;;13.60;92.20;;;;;;5036693;28;20021;-84
2022/09/17 03:43:32;;;;;;;7.38;1.92;;;13.60;92.20;;;;;;5020832;28;20025;-85
2022/09/17 03:45:59;;;;;;;8.88;2.17;;;13.60;92.20;;;;;;5027072;28;20017;-84
2022/09/17 03:48:26;;;;;;;6.20;1.70;;;13.50;92.20;;;;;;5040692;28;20057;-83
2022/09/17 03:50:51;;;;;;;7.45;2.13;;;13.50;92.20;;;;;;5011841;28;20029;-82
2022/09/17 03:53:17;;;;;;;5.93;1.65;;;13.50;92.20;;;;;;5036900;28;20101;-83
2022/09/17 03:55:43;;;;;;;8.40;1.77;;;13.50;92.20;;;;;;5040698;28;20068;-84
2022/09/17 03:58:09;;;;;;;9.52;1.65;;;13.50;92.10;;;;;;5040741;28;20039;-85
2022/09/17 04:00:38;;;;;;;5.10;1.50;;;13.40;92.10;;;;;;5040491;28;20055;-84
2022/09/17 04:03:05;;;;;;;5.47;1.38;;;13.40;92.10;;;;;;5037552;28;20456;-84
2022/09/17 04:05:31;;;;;;;8.52;1.55;;;13.40;92.10;;;;;;5023066;28;20041;-85
2022/09/17 04:08:00;;;;;;;5.45;1.85;;;13.40;92.10;;;;;;5057984;28;20377;-83
2022/09/17 04:10:26;;;;;;;11.15;2.28;;;13.40;92.10;;;;;;5039852;28;20127;-83
2022/09/17 04:12:52;;;;;;;4.20;1.70;;;13.30;92.10;;;;;;5039592;28;20052;-84
2022/09/17 04:15:18;;;;;;;6.00;1.38;;;13.30;92.00;;;;;;5021644;28;20473;-83
2022/09/17 04:17:44;;;;;;;6.57;1.73;;;13.40;92.10;;;;;;5019822;28;20040;-84
2022/09/17 04:20:10;;;;;;;3.97;1.40;;;13.30;92.10;;;;;;5020061;28;20025;-84
2022/09/17 04:22:36;;;;;;;5.80;1.60;;;13.30;92.10;;;;;;5019953;28;20029;-85
2022/09/17 04:25:01;;;;;;;4.85;1.33;;;13.30;92.00;;;;;;5020333;28;20380;-83
2022/09/17 04:27:27;;;;;;;5.13;1.48;;;13.30;92.00;;;;;;5019889;28;20521;-85
2022/09/17 04:29:52;;;;;;;5.90;1.25;;;13.20;92.00;;;;;;5003581;28;20030;-83
2022/09/17 04:32:18;;;;;;;5.15;1.58;;;13.20;92.00;;;;;;5003143;28;20117;-83
2022/09/17 04:34:44;;;;;;;4.40;1.30;;;13.20;92.10;;;;;;5019815;28;20053;-83
2022/09/17 04:37:11;;;;;;;5.35;1.30;;;13.20;92.10;;;;;;5003585;28;20461;-84
2022/09/17 04:39:39;;;;;;;5.07;1.20;;;13.10;92.10;;;;;;5019642;28;20060;-85
2022/09/17 04:42:08;;;;;;;5.20;1.48;;;13.10;92.20;;;;;;5003005;28;20037;-85
2022/09/17 04:44:34;;;;;;;5.95;1.80;;;13.00;92.20;;;;;;5003622;28;20038;-85
2022/09/17 04:46:59;;;;;;;4.60;1.20;;;13.10;92.30;;;;;;5019256;28;20026;-85
2022/09/17 04:49:28;;;;;;;2.80;1.15;;;13.00;92.20;;;;;;5002717;28;20053;-84
2022/09/17 04:51:54;;;;;;;5.55;1.33;;;13.10;92.30;;;;;;5019305;28;20458;-83
2022/09/17 04:54:23;;;;;;;5.85;1.67;;;13.10;92.20;;;;;;5002560;28;20040;-86
2022/09/17 04:56:48;;;;;;;5.28;1.40;;;13.10;92.20;;;;;;5019454;28;20457;-85
2022/09/17 04:59:14;;;;;;;6.22;1.65;;;13.10;92.20;;;;;;5019597;28;20033;-84
2022/09/17 05:01:42;;;;;;;6.72;1.30;;;13.10;92.20;;;;;;5018168;28;20030;-85
2022/09/17 05:04:08;;;;;;;7.18;1.42;;;13.00;92.20;;;;;;5019395;28;20393;-85
2022/09/17 05:06:34;;;;;;;5.25;1.35;;;13.00;92.30;;;;;;5026527;28;20063;-84
2022/09/17 05:09:00;;;;;;;9.40;1.83;;;13.00;92.20;;;;;;5038421;28;20412;-84
2022/09/17 05:11:27;;;;;;;3.78;1.25;;;13.00;92.30;;;;;;5006698;28;20021;-84
2022/09/17 05:13:53;;;;;;;7.07;1.60;;;13.00;92.40;;;;;;5039078;28;20108;-86
2022/09/17 05:16:19;;;;;;;6.40;2.03;;;13.00;92.30;;;;;;5018069;28;20022;-84
2022/09/17 05:18:46;;;;;;;7.35;1.58;;;13.00;92.30;;;;;;5002311;28;20030;-84
2022/09/17 05:21:13;;;;;;;6.20;1.63;;;13.00;92.30;;;;;;5019245;28;20045;-84
2022/09/17 05:23:38;;;;;;;6.70;1.80;;;13.00;92.30;;;;;;5020029;28;20086;-83
2022/09/17 05:26:04;;;;;;;8.40;1.88;;;13.00;92.30;;;;;;5018323;28;20042;-84
2022/09/17 05:28:31;;;;;;;5.93;1.40;;;13.00;92.30;;;;;;5025928;28;20015;-81
2022/09/17 05:31:00;;;;;;;6.13;1.52;;;13.00;92.40;;;;;;5059078;28;20010;-84
2022/09/17 05:33:26;;;;;;;5.60;1.55;;;13.00;92.40;;;;;;5031570;28;20030;-84
2022/09/17 05:35:52;;;;;;;8.02;1.55;;;13.00;92.50;;;;;;5024787;28;20025;-84
2022/09/17 05:38:18;;;;;;;7.20;2.13;;;12.90;92.40;;;;;;5011629;28;20033;-84
2022/09/17 05:40:44;;;;;;;9.13;1.98;;;13.00;92.40;;;;;;5007005;28;20040;-84
2022/09/17 05:43:10;;;;;;;9.10;1.45;;;13.00;92.40;;;;;;5038374;28;20143;-84
2022/09/17 05:45:38;;;;;;;6.07;1.80;;;12.90;92.40;;;;;;5021684;28;20037;-84
2022/09/17 05:48:06;;;;;;;6.25;2.10;;;13.00;92.50;;;;;;5018643;28;20168;-84
2022/09/17 05:50:32;;;;;;;8.15;1.90;;;13.00;92.50;;;;;;5038005;28;20037;-84
2022/09/17 05:53:12;;;;;;;5.85;1.60;;;13.00;92.50;;;;;;5037920;28;20536;-85
2022/09/17 05:55:38;;;;;;;7.88;1.40;;;13.00;92.40;;;;;;5038141;28;20025;-85
2022/09/17 05:58:13;;;;;;;6.85;1.63;;;13.00;92.50;;;;;;5037892;28;20178;-84
2022/09/17 06:00:40;;;;;;;5.18;1.80;;;13.00;92.50;;;;;;5018613;28;20029;-83
2022/09/17 06:03:09;;;;;;;5.28;1.40;;;13.00;92.50;;;;;;5035530;28;20029;-84
2022/09/17 06:05:36;;;;;;;4.75;1.38;;;13.00;92.60;;;;;;5001478;28;20037;-81
2022/09/17 06:08:02;;;;;;;6.32;1.65;;;13.00;92.50;;;;;;5001009;28;20397;-85
2022/09/17 06:10:28;;;;;;;4.28;1.58;;;13.00;92.50;;;;;;5009112;28;20397;-84
2022/09/17 06:12:59;;;;;;;5.57;1.27;;;13.00;92.50;;;;;;5001531;28;20045;-82
2022/09/17 06:15:26;;;;;;;6.30;1.67;;;13.10;92.50;;;;;;5017401;28;20036;-85
2022/09/17 06:17:52;;;;;;;7.32;1.35;;;13.00;92.50;;;;;;5017610;28;20408;-84
2022/09/17 06:20:19;;;;;;;4.18;1.08;;;13.00;92.50;;;;;;5003915;28;20123;-83
2022/09/17 06:22:45;;;;;;;5.85;1.60;;;13.00;92.60;;;;;;5020948;28;20068;-84
2022/09/17 06:25:11;;;;;;;6.18;1.42;;;13.00;92.60;;;;;;5020942;28;20064;-85
2022/09/17 06:27:39;;;;;;;6.72;1.40;;;13.00;92.70;;;;;;5004849;28;20025;-84
2022/09/17 06:30:11;;;;;;;2.92;1.30;;;13.10;92.70;;;;;;5019779;28;20091;-84
2022/09/17 06:32:37;;;;;;;6.00;1.20;;;13.10;92.80;;;;;;5026879;28;20358;-85
2022/09/17 06:35:05;;;;;;;5.28;1.85;;;13.00;92.70;;;;;;5001050;28;20095;-85
2022/09/17 06:37:39;;;;;;;2.88;0.98;;;13.00;92.80;;;;;;5002015;28;20151;-84
2022/09/17 06:40:06;;;;;;;6.10;1.55;;;13.10;92.80;;;;;;5018610;28;20029;-85
2022/09/17 06:42:38;;;;;;;5.05;1.38;;;13.10;92.80;;;;;;5018861;28;20099;-85
2022/09/17 06:45:08;;;;;;;4.15;1.30;;;13.10;92.80;;;;;;5018755;28;20033;-85
2022/09/17 06:47:36;;;;;;;4.50;1.13;;;13.10;92.80;;;;;;5032471;28;20050;-84
2022/09/17 06:50:02;;;;;;;2.33;0.63;;;13.10;92.70;;;;;;4998678;28;20269;-85
2022/09/17 06:52:28;;;;;;;5.15;1.00;;;13.10;92.80;;;;;;5001219;28;20037;-86
2022/09/17 06:54:54;;;;;;;4.80;1.08;;;13.20;92.80;;;;;;5018615;28;20025;-85
2022/09/17 06:57:21;;;;;;;4.10;0.93;;;13.20;92.90;;;;;;5018977;28;20068;-85
2022/09/17 06:59:48;;;;;;;4.43;0.80;;;13.30;92.90;;;;;;5017935;28;20037;-84
2022/09/17 07:02:15;;;;;;;4.45;1.30;;;13.30;92.80;;;;;;5034495;28;20052;-85
2022/09/17 07:04:40;;;;;;;5.00;1.30;;;13.30;92.80;;;;;;5027607;28;20006;-83
2022/09/17 07:07:07;;;;;;;5.65;1.00;;;13.30;92.80;;;;;;5007970;28;20036;-84
2022/09/17 07:09:33;;;;;;;5.88;1.20;;;13.40;92.80;;;;;;5040997;28;20009;-86
2022/09/17 07:11:59;;;;;;;5.93;1.20;;;13.40;93.10;;;;;;5023750;28;20021;-87
2022/09/17 07:14:25;;;;;;;4.82;1.10;;;13.40;92.80;;;;;;5019613;28;20037;-82
2022/09/17 07:16:51;;;;;;;2.17;0.98;;;13.50;92.80;;;;;;4998832;28;20030;-83
2022/09/17 07:19:19;;;;;;;4.28;1.20;;;13.50;92.80;;;;;;4997539;28;20052;-84
2022/09/17 07:21:52;;;;;;;5.20;1.13;;;13.50;92.80;;;;;;4998249;28;20049;-83
2022/09/17 07:24:18;;;;;;;4.28;1.10;;;13.50;92.80;;;;;;4998247;28;20041;-83
2022/09/17 07:26:45;;;;;;;4.70;1.00;;;13.60;92.80;;;;;;4984726;28;20030;-84
2022/09/17 07:29:15;;;;;;;3.28;0.93;;;13.70;92.90;;;;;;4985285;28;20080;-83
2022/09/17 07:31:41;;;;;;;5.78;0.82;;;13.70;92.80;;;;;;4985576;28;20464;-83
2022/09/17 07:34:08;;;;;;;3.80;1.00;;;13.80;92.70;;;;;;4993649;28;20053;-86
2022/09/17 07:36:34;;;;;;;3.42;0.88;;;13.80;92.80;;;;;;4985129;28;20034;-84
2022/09/17 07:39:00;;;;;;;7.00;1.10;;;13.90;92.80;;;;;;4967700;28;20481;-84
2022/09/17 07:41:26;;;;;;;3.95;0.85;;;14.00;92.70;;;;;;4984696;28;20030;-83
2022/09/17 07:43:54;;;;;;;3.00;0.75;;;14.00;92.60;;;;;;4978449;28;20029;-83
2022/09/17 07:46:20;;;;;;;5.18;1.08;;;14.00;92.60;;;;;;5003939;28;20033;-84
2022/09/17 07:48:47;;;;;;;4.45;1.23;;;14.10;92.90;;;;;;5017390;28;20091;-85
2022/09/17 07:51:18;;;;;;;3.50;0.82;;;14.10;92.50;;;;;;5040251;28;20473;-83
2022/09/17 07:53:44;;;;;;;3.38;1.08;;;14.20;92.50;;;;;;5034811;28;20087;-85
2022/09/17 07:56:10;;;;;;;4.13;0.57;;;14.30;92.50;;;;;;5020609;28;20026;-86
2022/09/17 07:58:35;;;;;;;3.65;0.88;;;14.30;92.50;;;;;;5020561;28;20029;-84
2022/09/17 08:01:07;;;;;;;2.60;0.70;;;14.30;92.40;;;;;;5003301;28;20061;-84
2022/09/17 08:03:38;;;;;;;5.13;0.88;;;14.40;92.30;;;;;;4989160;28;20041;-86
2022/09/17 08:06:06;;;;;;;3.13;1.10;;;14.40;92.20;;;;;;5025121;28;20032;-84
2022/09/17 08:08:35;;;;;;;3.22;1.10;;;14.50;92.10;;;;;;5008506;28;20079;-84
2022/09/17 08:11:20;;;;;;;4.03;0.98;;;14.50;92.00;;;;;;5010511;28;20022;-85
2022/09/17 08:13:51;;;;;;;4.88;0.85;;;14.60;91.90;;;;;;5012943;28;20105;-82
2022/09/17 08:16:17;;;;;;;2.97;0.90;;;14.70;91.90;;;;;;5011116;28;20031;-82
2022/09/17 08:18:46;;;;;;;5.18;1.27;;;14.70;91.70;;;;;;5024428;28;20481;-84
2022/09/17 08:21:14;;;;;;;3.50;1.10;;;14.70;91.50;;;;;;5011340;28;20025;-84
2022/09/17 08:23:43;;;;;;;4.70;1.13;;;14.70;91.60;;;;;;5029015;28;20025;-83
2022/09/17 08:26:17;;;;;;;4.55;1.25;;;14.80;91.60;;;;;;5019413;28;20030;-83
2022/09/17 08:28:48;;;;;;;3.08;0.93;;;14.90;91.60;;;;;;5037184;28;20025;-83
2022/09/17 08:31:14;;;;;;;;;;;15.00;91.50;;;;;;5036360;28;20060;-83
2022/09/17 08:33:40;;;;;;;4.20;1.25;;;15.00;91.40;;;;;;5021058;28;19960;-83
2022/09/17 08:36:09;;;;;;;3.85;1.00;;;15.00;91.40;;;;;;5034486;28;20037;-82
2022/09/17 08:38:36;;;;;;;3.90;1.15;;;15.00;91.10;;;;;;5040402;28;20029;-83
2022/09/17 08:41:24;;;;;;;2.85;1.20;;;15.10;91.10;;;;;;5023481;28;20025;-88
2022/09/17 08:44:10;;;;;;;4.18;1.17;;;15.10;91.10;;;;;;5058724;28;20055;-83
2022/09/17 08:46:42;;;;;;;3.08;1.17;;;15.20;90.90;;;;;;5043186;28;20033;-84
2022/09/17 08:49:32;;;;;;;2.95;0.90;;;15.20;90.50;;;;;;5023596;28;20046;-88
2022/09/17 08:52:22;;;;;;;3.70;0.80;;;15.20;90.30;;;;;;5024061;28;20093;-84
2022/09/17 08:54:57;;;;;;;6.07;1.17;;;15.30;90.20;;;;;;5040225;28;20041;-81
2022/09/17 08:58:00;;;;;;;3.55;0.93;;;15.30;90.20;;;;;;5025303;28;20034;-84
2022/09/17 09:00:38;;;;;;;4.38;1.00;;;15.40;90.10;;;;;;5034957;28;20038;-83
2022/09/17 09:03:45;;;;;;;3.22;0.93;;;15.40;89.80;;;;;;5001980;28;20032;-82
2022/09/17 09:06:14;;;;;;;4.15;1.10;;;15.40;89.30;;;;;;4938813;29;20514;-81
2022/09/17 09:08:52;;;;;;;3.95;0.90;;;15.40;89.20;;;;;;4933901;29;20071;-84
2022/09/17 09:11:28;;;;;;;5.50;0.90;;;15.40;89.00;;;;;;4968783;28;20127;-85
2022/09/17 09:14:02;;;;;;;1.77;0.80;;;15.40;88.90;;;;;;5000898;28;20025;-85
2022/09/17 09:16:31;;;;;;;2.00;0.93;;;15.50;88.70;;;;;;4999834;28;20044;-82
2022/09/17 09:19:13;;;;;;;5.50;1.00;;;15.50;88.00;;;;;;5020344;28;20033;-84
2022/09/17 09:22:04;;;;;;;1.95;0.70;;;15.50;87.00;;;;;;5037180;28;20122;-84
2022/09/17 09:24:48;;;;;;;0.85;0.43;;;15.50;87.00;;;;;;5037510;28;20033;-84
2022/09/17 09:27:26;;;;;;;3.75;0.68;;;15.50;87.40;;;;;;5035373;28;20100;-84
2022/09/17 09:30:06;;;;;;;2.85;0.70;;;15.60;87.00;;;;;;5019501;28;20025;-86
2022/09/17 09:32:56;;;;;;;3.60;1.15;;;15.60;86.40;;;;;;5020198;28;20087;-83
2022/09/17 09:35:43;;;;;;;1.70;0.60;;;15.60;85.50;;;;;;5019225;28;20022;-82
2022/09/17 09:38:17;;;;;;;2.55;0.82;;;15.60;85.30;;;;;;5018390;28;20424;-85
2022/09/17 09:40:52;;;;;;;2.00;0.60;;;15.60;85.60;;;;;;5037118;28;20033;-84
2022/09/17 09:43:28;;;;;;;0.52;0.30;;;15.70;85.90;;;;;;5019120;28;20045;-83
2022/09/17 09:46:10;;;;;;;3.95;0.65;;;15.80;85.90;;;;;;5018891;28;20482;-83
2022/09/17 09:48:59;;;;;;;4.03;0.82;;;15.80;85.80;;;;;;5020747;28;20044;-83
2022/09/17 09:51:51;;;;;;;4.45;1.02;;;15.90;86.10;;;;;;5035775;28;20053;-84
2022/09/17 09:54:25;;;;;;;2.10;0.57;;;15.90;85.40;;;;;;5018788;28;20056;-86
2022/09/17 09:56:58;;;;;;;3.53;0.73;;;15.90;85.70;;;;;;5019243;28;20358;-84
2022/09/17 09:59:25;;;;;;;1.75;0.68;;;16.00;85.80;;;;;;5029419;28;20021;-84
2022/09/17 10:01:51;;;;;;;2.92;0.75;;;16.10;85.40;;;;;;5022482;28;20074;-84
2022/09/17 10:04:17;;;;;;;2.53;0.80;;;16.20;84.70;;;;;;5038767;28;20040;-84
2022/09/17 10:06:44;;;;;;;4.10;0.90;;;16.30;84.20;;;;;;5038655;28;20021;-85
2022/09/17 10:09:21;;;;;;;3.85;0.80;;;16.30;83.90;;;;;;5020195;28;20029;-83
2022/09/17 10:12:08;;;;;;;4.28;1.00;;;16.40;84.30;;;;;;5038899;28;20029;-84
2022/09/17 10:14:36;;;;;;;2.75;0.88;;;16.40;83.40;;;;;;5038214;28;20028;-82
2022/09/17 10:17:21;;;;;;;2.38;0.73;;;16.20;83.20;;;;;;5037977;28;20017;-84
2022/09/17 10:20:15;;;;;;;2.95;0.93;;;16.00;84.70;;;;;;5034794;28;20532;-84
2022/09/17 10:22:46;;;;;;;1.95;0.70;;;16.00;85.50;;;;;;5037123;28;20032;-82
2022/09/17 10:25:27;;;;;;;4.10;0.70;;;15.90;86.10;;;;;;5021373;28;20040;-84
2022/09/17 10:27:53;;;;;;;3.13;0.88;;;15.90;87.00;;;;;;5055909;28;20378;-83
2022/09/17 10:30:19;;;;;;;4.78;1.00;;;15.90;87.60;;;;;;5004964;28;20040;-84
2022/09/17 10:33:16;;;;;;;2.22;0.60;;;15.90;88.10;;;;;;5022254;28;20029;-83
2022/09/17 10:36:08;;;;;;;5.63;0.90;;;15.80;88.80;;;;;;5061559;28;20009;-82
2022/09/17 10:38:40;;;;;;;3.42;1.00;;;15.90;89.30;;;;;;5061026;28;20097;-81
2022/09/17 10:41:10;;;;;;;3.28;0.98;;;15.80;89.10;;;;;;5053026;28;20028;-83
2022/09/17 10:43:35;;;;;;;2.70;1.00;;;15.80;89.20;;;;;;5040950;28;20033;-83
2022/09/17 10:46:02;;;;;;;2.97;0.80;;;15.80;89.40;;;;;;5039625;28;20124;-84
2022/09/17 10:48:33;;;;;;;3.85;0.73;;;15.80;89.70;;;;;;5017827;28;20128;-85
2022/09/17 10:51:01;;;;;;;5.13;0.80;;;15.70;90.00;;;;;;5017843;28;20026;-86
2022/09/17 10:53:28;;;;;;;2.95;0.90;;;15.70;90.20;;;;;;5038246;28;20029;-84
2022/09/17 10:56:25;;;;;;;3.00;0.90;;;15.50;90.40;;;;;;5022280;28;20033;-84
2022/09/17 10:59:27;;;;;;;1.98;0.63;;;15.30;90.30;;;;;;5037796;28;20024;-84
2022/09/17 11:02:11;;;;;;;1.95;0.60;;;15.30;90.50;;;;;;4947117;28;20035;-83
2022/09/17 11:04:51;;;;;;;1.38;0.70;;;15.30;90.40;;;;;;5017778;28;20033;-85
2022/09/17 11:07:53;;;;;;;1.95;0.70;;;15.30;90.50;;;;;;5035993;28;20522;-84
2022/09/17 11:10:42;;;;;;;3.30;0.80;;;15.40;90.70;;;;;;5017954;28;20053;-85
2022/09/17 11:13:24;;;;;;;3.47;0.65;;;15.50;90.80;;;;;;5027540;28;20031;-85
2022/09/17 11:15:56;;;;;;;;;;;15.60;90.80;;;;;;5056489;28;20531;-84
2022/09/17 11:18:45;;;;;;;3.25;0.90;;;15.70;90.50;;;;;;5038253;28;19977;-84
2022/09/17 11:21:36;;;;;;;4.90;0.80;;;15.70;90.40;;;;;;5037307;28;20017;-83
2022/09/17 11:24:27;;;;;;;3.45;0.88;;;15.70;90.40;;;;;;5023745;28;20051;-84
2022/09/17 11:27:23;;;;;;;4.35;0.80;;;15.80;90.40;;;;;;5017555;28;20030;-84
2022/09/17 11:30:13;;;;;;;3.28;0.63;;;15.90;90.50;;;;;;5017511;28;20025;-83
2022/09/17 11:32:50;;;;;;;3.53;0.90;;;16.00;90.50;;;;;;5017736;28;20026;-84
2022/09/17 11:35:32;;;;;;;6.75;1.38;;;16.10;90.50;;;;;;5054165;28;20098;-84
2022/09/17 11:38:13;;;;;;;2.50;0.80;;;16.20;90.40;;;;;;5055855;28;20476;-83
2022/09/17 11:41:01;;;;;;;3.22;0.80;;;16.30;90.40;;;;;;5037438;28;20103;-84
2022/09/17 11:43:30;;;;;;;4.75;0.75;;;16.40;90.10;;;;;;5036150;28;20465;-83
2022/09/17 11:45:56;;;;;;;2.72;0.85;;;16.50;89.90;;;;;;5036938;28;20045;-84
2022/09/17 11:48:34;;;;;;;3.67;0.90;;;16.50;89.70;;;;;;5037555;28;20056;-84
2022/09/17 11:51:35;;;;;;;2.53;0.90;;;16.60;89.60;;;;;;5037556;28;20021;-84
2022/09/17 11:54:38;;;;;;;3.97;1.00;;;16.60;89.00;;;;;;5029909;28;20044;-86
2022/09/17 11:57:26;;;;;;;4.55;1.15;;;16.70;88.80;;;;;;5017576;28;20056;-84
2022/09/17 12:00:08;;;;;;;4.30;1.00;;;16.70;87.60;;;;;;5018342;28;20075;-84
2022/09/17 12:03:09;;;;;;;3.90;1.30;;;16.70;87.20;;;;;;5018514;28;20060;-84
2022/09/17 12:05:53;;;;;;;4.18;1.05;;;16.80;86.80;;;;;;5018193;28;20041;-85
2022/09/17 12:08:28;;;;;;;2.95;1.10;;;16.80;85.30;;;;;;5018086;28;20026;-85
2022/09/17 12:11:06;;;;;;;4.60;1.52;;;16.80;85.20;;;;;;5020201;28;20026;-85
2022/09/17 12:13:43;;;;;;;6.70;1.48;;;16.90;84.20;;;;;;5021131;28;20021;-85
2022/09/17 12:16:34;;;;;;;6.45;1.48;;;16.90;84.20;;;;;;5024116;28;20033;-84
2022/09/17 12:19:07;;;;;;;5.03;1.02;;;16.80;85.70;;;;;;5024073;28;20034;-84
2022/09/17 12:21:36;;;;;;;8.23;1.80;;;16.80;86.50;;;;;;5040373;28;20022;-86
2022/09/17 12:24:31;;;;;;;5.72;1.63;;;16.50;86.30;;;;;;5027093;28;20046;-85
2022/09/17 12:27:42;;;;;;;3.63;1.02;;;16.30;86.50;;;;;;5044837;28;20005;-84
2022/09/17 12:30:25;;;;;;;3.95;1.00;;;16.00;86.80;;;;;;5059723;28;20025;-85
2022/09/17 12:33:14;;;;;;;3.33;0.70;;;15.80;86.70;;;;;;5035307;28;20044;-86
2022/09/17 12:36:05;;;;;;;2.08;1.05;;;15.60;86.30;;;;;;5029366;28;20033;-86
2022/09/17 12:38:59;;;;;;;2.17;0.80;;;15.50;86.80;;;;;;5024660;28;20017;-84
2022/09/17 12:41:59;;;;;;;5.70;1.40;;;15.40;87.40;;;;;;5023822;28;20120;-87
2022/09/17 12:44:59;;;;;;;3.65;0.65;;;15.50;87.80;;;;;;5005691;28;20049;-85
2022/09/17 12:47:49;;;;;;;3.97;1.10;;;15.50;88.50;;;;;;5023393;28;20034;-84
2022/09/17 12:50:25;;;;;;;4.97;1.13;;;15.60;88.90;;;;;;5020542;28;20038;-85
2022/09/17 12:53:23;;;;;;;3.92;1.50;;;15.60;89.10;;;;;;5002123;28;20145;-86
2022/09/17 12:56:27;;;;;;;3.25;0.80;;;15.70;88.80;;;;;;5002256;28;20115;-86
2022/09/17 12:58:55;;;;;;;2.17;0.70;;;15.80;88.10;;;;;;5017261;28;20022;-85
2022/09/17 13:01:44;;;;;;;2.15;0.70;;;15.70;86.70;;;;;;5019383;28;20370;-85
2022/09/17 13:04:40;;;;;;;2.17;0.63;;;15.60;86.00;;;;;;5001751;28;20041;-85
2022/09/17 13:07:51;;;;;;;2.63;0.70;;;15.60;86.60;;;;;;5010170;28;20045;-85
2022/09/17 13:10:44;;;;;;;3.15;0.85;;;15.60;86.30;;;;;;5021139;28;20358;-85
2022/09/17 13:13:26;;;;;;;2.60;0.70;;;15.60;85.80;;;;;;5020209;28;20033;-84
2022/09/17 13:16:14;;;;;;;2.65;1.02;;;15.60;86.10;;;;;;5021005;28;20069;-85
2022/09/17 13:19:08;;;;;;;4.63;1.35;;;15.70;86.20;;;;;;5017874;28;20030;-84
2022/09/17 13:21:41;;;;;;;4.05;1.55;;;15.70;86.00;;;;;;5018807;28;20104;-86
2022/09/17 13:24:29;;;;;;;4.30;1.52;;;15.70;86.70;;;;;;5037574;28;20503;-85
2022/09/17 13:26:57;;;;;;;3.80;0.98;;;15.90;87.20;;;;;;5037565;28;20108;-85